Time;durP1;ratioP1;P1;durP2;ratioP2;P2;SDS_P1;SDS_P2;PMS_P1;PMS_P2;Temp;Humidity;BMP_temperature;BMP_pressure;BME280_temperature;BME280_humidity;BME280_pressure;Samples;Min_cycle;Max_cycle;Signal;HPM_P1;HPM_P2
2021/12/03 00:01:39;;;;;;;7.05;0.80;;;;;;;0.32;100.00;100467.13;4846560;29;20676;-81
2021/12/03 00:04:05;;;;;;;3.05;0.63;;;;;;;0.31;100.00;100468.00;4830349;29;20183;-82
2021/12/03 00:06:35;;;;;;;7.10;0.82;;;;;;;0.33;100.00;100466.25;4846522;29;20266;-79
2021/12/03 00:09:00;;;;;;;5.35;0.98;;;;;;;0.29;100.00;100477.69;4844877;29;20223;-81
2021/12/03 00:11:26;;;;;;;5.55;0.80;;;;;;;0.24;100.00;100472.44;4845228;29;20179;-80
2021/12/03 00:13:51;;;;;;;6.68;0.90;;;;;;;0.29;100.00;100480.31;4844871;29;20186;-83
2021/12/03 00:16:17;;;;;;;3.40;0.82;;;;;;;0.28;100.00;100481.19;4846092;29;20555;-79
2021/12/03 00:18:43;;;;;;;4.18;0.80;;;;;;;0.27;100.00;100474.16;4845356;29;20633;-82
2021/12/03 00:21:11;;;;;;;7.63;1.42;;;;;;;0.27;100.00;100464.50;4829076;29;20201;-82
2021/12/03 00:23:37;;;;;;;4.07;0.73;;;;;;;0.22;100.00;100476.81;4845508;29;20712;-79
2021/12/03 00:26:04;;;;;;;3.92;0.70;;;;;;;0.20;100.00;100471.53;4845692;29;20191;-79
2021/12/03 00:28:31;;;;;;;5.90;0.82;;;;;;;0.28;100.00;100463.59;4844679;29;20175;-82
2021/12/03 00:30:58;;;;;;;2.85;0.60;;;;;;;0.34;100.00;100452.19;4846933;29;20561;-79
2021/12/03 00:33:25;;;;;;;4.60;0.85;;;;;;;0.41;100.00;100462.69;4844708;29;20634;-81
2021/12/03 00:35:52;;;;;;;4.95;0.85;;;;;;;0.53;100.00;100474.09;4829204;29;20187;-79
2021/12/03 00:38:17;;;;;;;5.18;0.90;;;;;;;0.52;100.00;100470.56;4845357;29;20174;-81
2021/12/03 00:40:43;;;;;;;3.05;0.75;;;;;;;0.48;100.00;100473.22;4827918;29;20714;-81
2021/12/03 00:43:08;;;;;;;1.63;0.60;;;;;;;0.46;100.00;100460.06;4828012;29;20194;-81
2021/12/03 00:45:35;;;;;;;4.10;0.70;;;;;;;0.47;100.00;100466.22;4842961;29;20309;-81
2021/12/03 00:48:01;;;;;;;3.97;0.82;;;;;;;0.45;100.00;100468.84;4842580;29;20187;-81
2021/12/03 00:50:27;;;;;;;3.58;0.60;;;;;;;0.40;100.00;100453.03;4843904;29;20187;-81
2021/12/03 00:52:53;;;;;;;1.75;0.80;;;;;;;0.41;100.00;100464.44;4827024;29;20182;-81
2021/12/03 00:55:20;;;;;;;6.53;1.02;;;;;;;0.37;100.00;100466.25;4857194;29;20193;-82
2021/12/03 00:57:46;;;;;;;5.93;0.60;;;;;;;0.43;100.00;100461.81;4860542;29;20659;-82
2021/12/03 01:00:16;;;;;;;7.35;0.90;;;;;;;0.37;100.00;100458.34;4862366;29;20198;-79
2021/12/03 01:02:42;;;;;;;6.25;1.40;;;;;;;0.41;100.00;100459.19;4862311;29;20204;-79
2021/12/03 01:05:08;;;;;;;7.47;1.20;;;;;;;0.41;100.00;100464.44;4846367;29;20276;-82
2021/12/03 01:07:34;;;;;;;5.72;0.70;;;;;;;0.36;100.00;100456.56;4862513;29;20176;-83
2021/12/03 01:10:00;;;;;;;4.25;0.80;;;;;;;0.35;100.00;100468.00;4861917;29;20209;-83
2021/12/03 01:12:25;;;;;;;4.80;0.80;;;;;;;0.44;100.00;100459.19;4861770;29;20204;-82
2021/12/03 01:14:51;;;;;;;5.07;0.70;;;;;;;0.43;100.00;100461.81;4862263;29;20603;-83
2021/12/03 01:17:17;;;;;;;6.20;1.05;;;;;;;0.43;100.00;100465.34;4846423;29;20174;-79
2021/12/03 01:19:43;;;;;;;5.55;0.60;;;;;;;0.45;100.00;100467.97;4846705;29;20193;-82
2021/12/03 01:22:09;;;;;;;4.28;0.90;;;;;;;0.47;100.00;100471.47;4861758;29;20210;-80
2021/12/03 01:24:34;;;;;;;2.95;0.60;;;;;;;0.43;100.00;100467.97;4863398;29;20783;-82
2021/12/03 01:27:00;;;;;;;5.15;0.70;;;;;;;0.40;100.00;100474.13;4862251;29;20604;-82
2021/12/03 01:29:25;;;;;;;5.05;0.68;;;;;;;0.36;100.00;100477.66;4862816;29;20200;-82
2021/12/03 01:31:53;;;;;;;11.90;1.15;;;;;;;0.39;100.00;100484.66;4861847;29;20521;-82
2021/12/03 01:34:20;;;;;;;7.93;0.90;;;;;;;0.34;100.00;100476.78;4861653;29;20229;-82
2021/12/03 01:36:45;;;;;;;7.32;0.90;;;;;;;0.37;100.00;100495.22;4862573;29;20175;-80
2021/12/03 01:39:12;;;;;;;8.07;0.70;;;;;;;0.50;100.00;100490.78;4861659;29;20624;-81
2021/12/03 01:41:38;;;;;;;6.72;1.13;;;;;;;0.49;100.00;100488.16;4859013;29;20655;-81
2021/12/03 01:44:04;;;;;;;5.82;1.02;;;;;;;0.49;100.00;100502.22;4859161;29;20182;-81
2021/12/03 01:46:31;;;;;;;4.63;0.75;;;;;;;0.39;100.00;100501.38;4844310;29;20229;-81
2021/12/03 01:48:58;;;;;;;9.00;1.50;;;;;;;0.38;100.00;100501.38;4859863;29;20238;-81
2021/12/03 01:51:24;;;;;;;7.72;1.17;;;;;;;0.31;100.00;100497.00;4862523;29;20194;-81
2021/12/03 01:53:50;;;;;;;5.47;0.85;;;;;;;0.44;100.00;100484.66;4860984;29;20362;-81
2021/12/03 01:56:16;;;;;;;9.32;1.35;;;;;;;0.43;100.00;100496.09;4860624;29;20565;-81
2021/12/03 01:58:44;;;;;;;5.78;0.77;;;;;;;0.38;100.00;100496.97;4845560;29;20196;-81
2021/12/03 02:01:12;;;;;;;13.60;1.20;;;;;;;0.34;100.00;100495.22;4864953;29;20303;-81
2021/12/03 02:03:40;;;;;;;2.53;0.75;;;;;;;0.42;100.00;100487.31;4866711;29;20177;-81
2021/12/03 02:06:08;;;;;;;7.90;1.05;;;;;;;0.44;100.00;100490.81;4867066;29;20173;-82
2021/12/03 02:08:33;;;;;;;3.80;0.80;;;;;;;0.39;100.00;100496.09;4864535;29;20226;-81
2021/12/03 02:10:59;;;;;;;6.28;0.88;;;;;;;0.42;100.00;100508.41;4866704;29;20190;-81
2021/12/03 02:13:25;;;;;;;7.88;0.88;;;;;;;0.57;100.00;100518.91;4866558;29;20170;-81
2021/12/03 02:15:50;;;;;;;11.18;1.10;;;;;;;0.57;100.00;100516.25;4865607;29;20654;-81
2021/12/03 02:18:17;;;;;;;8.27;1.05;;;;;;;0.64;100.00;100506.56;4854835;29;20194;-81
2021/12/03 02:20:51;;;;;;;7.50;1.55;;;;;;;0.69;100.00;100514.47;4874928;29;20683;-81
2021/12/03 02:23:17;;;;;;;7.07;0.88;;;;;;;0.71;100.00;100520.63;4861940;29;20218;-81
2021/12/03 02:25:43;;;;;;;5.13;1.20;;;;;;;0.70;100.00;100508.31;4830465;29;20210;-81
2021/12/03 02:28:09;;;;;;;8.23;1.20;;;;;;;0.66;100.00;100515.38;4844245;29;20177;-81
2021/12/03 02:30:35;;;;;;;4.38;0.90;;;;;;;0.57;100.00;100516.25;4876891;29;20642;-81
2021/12/03 02:33:01;;;;;;;7.75;1.08;;;;;;;0.58;100.00;100525.91;4883374;29;20312;-81
2021/12/03 02:35:26;;;;;;;6.45;0.95;;;;;;;0.64;100.00;100518.88;4883919;29;20178;-81
2021/12/03 02:37:53;;;;;;;4.72;0.82;;;;;;;0.65;100.00;100518.88;4882505;29;20184;-81
2021/12/03 02:40:20;;;;;;;3.45;1.08;;;;;;;0.59;100.00;100518.88;4885317;29;20261;-81
2021/12/03 02:42:47;;;;;;;6.65;0.80;;;;;;;0.56;100.00;100524.16;4884299;29;20194;-81
2021/12/03 02:45:13;;;;;;;3.67;1.00;;;;;;;0.61;100.00;100527.66;4883836;29;20539;-81
2021/12/03 02:47:39;;;;;;;3.90;1.02;;;;;;;0.56;100.00;100525.03;4883412;29;20269;-81
2021/12/03 02:50:07;;;;;;;7.05;1.40;;;;;;;0.58;100.00;100517.13;4884918;29;20202;-81
2021/12/03 02:52:33;;;;;;;3.55;0.85;;;;;;;0.55;100.00;100527.69;4884344;29;20173;-81
2021/12/03 02:54:59;;;;;;;4.55;0.80;;;;;;;0.59;100.00;100529.41;4885483;29;20189;-81
2021/12/03 02:57:25;;;;;;;2.17;0.63;;;;;;;0.57;100.00;100528.56;4852724;29;20181;-81
2021/12/03 02:59:51;;;;;;;4.78;0.80;;;;;;;0.61;100.00;100519.75;4867795;29;20193;-83
2021/12/03 03:02:17;;;;;;;8.30;1.10;;;;;;;0.58;100.00;100538.22;4867469;29;20213;-82
2021/12/03 03:04:42;;;;;;;5.95;0.80;;;;;;;0.56;100.00;100559.31;4853316;29;20276;-81
2021/12/03 03:07:08;;;;;;;6.18;1.02;;;;;;;0.60;100.00;100565.47;4882943;29;20440;-81
2021/12/03 03:09:34;;;;;;;2.33;0.68;;;;;;;0.60;100.00;100554.91;4852492;29;20219;-81
2021/12/03 03:11:59;;;;;;;6.32;0.70;;;;;;;0.68;100.00;100575.97;4885373;29;20185;-81
2021/12/03 03:14:26;;;;;;;4.20;1.10;;;;;;;0.65;100.00;100547.88;4884537;29;20189;-81
2021/12/03 03:16:52;;;;;;;5.45;0.93;;;;;;;0.52;100.00;100539.09;4883046;29;20181;-81
2021/12/03 03:19:20;;;;;;;1.70;0.63;;;;;;;0.43;100.00;100512.78;4883858;29;20178;-82
2021/12/03 03:21:46;;;;;;;5.57;0.80;;;;;;;0.46;100.00;100522.41;4884316;29;20674;-81
2021/12/03 03:24:13;;;;;;;3.75;0.68;;;;;;;0.39;100.00;100524.19;4884730;29;20241;-81
2021/12/03 03:26:40;;;;;;;3.55;0.75;;;;;;;0.38;100.00;100533.00;4867509;29;20177;-81
2021/12/03 03:29:08;;;;;;;5.47;0.82;;;;;;;0.39;100.00;100535.63;4884330;29;20182;-81
2021/12/03 03:31:35;;;;;;;3.15;0.68;;;;;;;0.40;100.00;100528.59;4883980;29;20184;-81
2021/12/03 03:34:02;;;;;;;3.70;0.70;;;;;;;0.42;100.00;100521.56;4885214;29;20177;-83
2021/12/03 03:36:32;;;;;;;5.70;0.85;;;;;;;0.45;100.00;100524.19;4884825;29;20170;-82
2021/12/03 03:38:57;;;;;;;4.03;1.02;;;;;;;0.47;100.00;100511.00;4885103;29;20201;-82
2021/12/03 03:41:23;;;;;;;5.90;1.38;;;;;;;0.46;100.00;100519.78;4885342;29;20205;-82
2021/12/03 03:43:48;;;;;;;5.35;0.90;;;;;;;0.44;100.00;100513.63;4883547;29;20650;-83
2021/12/03 03:46:14;;;;;;;5.32;0.93;;;;;;;0.50;100.00;100517.13;4885319;29;20276;-83
2021/12/03 03:48:39;;;;;;;4.63;0.70;;;;;;;0.51;100.00;100518.03;4885946;29;20213;-82
2021/12/03 03:51:04;;;;;;;5.13;0.82;;;;;;;0.50;100.00;100516.25;4887951;29;20194;-82
2021/12/03 03:53:30;;;;;;;7.72;1.60;;;;;;;0.57;100.00;100523.31;4884138;29;20170;-83
2021/12/03 03:55:55;;;;;;;5.60;1.10;;;;;;;0.58;100.00;100531.19;4844990;29;20206;-81
2021/12/03 03:58:21;;;;;;;5.28;0.90;;;;;;;0.57;100.00;100528.56;4832922;29;20270;-81
2021/12/03 04:00:46;;;;;;;6.22;0.82;;;;;;;0.57;100.00;100539.13;4847478;29;20203;-79
2021/12/03 04:03:13;;;;;;;3.70;1.00;;;;;;;0.59;100.00;100534.69;4907068;23;20192;-84
2021/12/03 04:05:38;;;;;;;2.58;0.80;;;;;;;0.54;100.00;100534.69;4862831;29;20177;-81
2021/12/03 04:08:05;;;;;;;6.88;1.17;;;;;;;0.51;100.00;100533.84;4882039;29;20184;-81
2021/12/03 04:10:31;;;;;;;3.72;0.73;;;;;;;0.49;100.00;100531.22;4846573;29;20198;-81
2021/12/03 04:12:56;;;;;;;3.10;0.63;;;;;;;0.50;100.00;100525.03;4847213;29;20185;-81
2021/12/03 04:15:22;;;;;;;6.88;1.00;;;;;;;0.49;100.00;100525.94;4863747;29;20177;-79
2021/12/03 04:17:48;;;;;;;7.30;1.08;;;;;;;0.43;100.00;100525.94;4861017;29;20708;-81
2021/12/03 04:20:15;;;;;;;5.50;0.75;;;;;;;0.38;100.00;100528.59;4851388;29;20724;-81
2021/12/03 04:22:42;;;;;;;3.70;1.05;;;;;;;0.43;100.00;100540.88;4880049;29;20169;-81
2021/12/03 04:25:16;;;;;;;5.13;1.05;;;;;;;0.44;100.00;100540.00;4879540;29;20182;-81
2021/12/03 04:27:42;;;;;;;7.75;1.10;;;;;;;0.41;100.00;100528.56;4848869;29;20647;-81
2021/12/03 04:30:13;;;;;;;5.68;1.10;;;;;;;0.43;100.00;100523.31;4845443;29;20203;-82
2021/12/03 04:32:38;;;;;;;5.40;1.27;;;;;;;0.42;100.00;100503.13;4844832;29;20183;-83
2021/12/03 04:35:05;;;;;;;4.32;0.85;;;;;;;0.39;100.00;100485.56;4846436;29;20190;-82
2021/12/03 04:37:30;;;;;;;8.57;1.08;;;;;;;0.33;100.00;100488.22;4829504;29;20175;-83
2021/12/03 04:39:56;;;;;;;6.18;1.00;;;;;;;0.34;100.00;100476.78;4846790;29;20369;-83
2021/12/03 04:42:21;;;;;;;4.90;1.02;;;;;;;0.32;100.00;100470.63;4831018;29;20241;-83
2021/12/03 04:44:47;;;;;;;4.90;0.70;;;;;;;0.31;100.00;100483.81;4830871;29;20641;-82
2021/12/03 04:47:12;;;;;;;3.55;0.82;;;;;;;0.32;100.00;100478.53;4846294;29;20605;-83
2021/12/03 04:49:38;;;;;;;4.85;0.90;;;;;;;0.32;100.00;100483.81;4845186;29;20218;-83
2021/12/03 04:52:04;;;;;;;1.55;0.63;;;;;;;0.32;100.00;100490.84;4830366;29;20171;-82
2021/12/03 04:54:29;;;;;;;6.07;0.90;;;;;;;0.37;100.00;100504.88;4861521;29;20196;-83
2021/12/03 04:56:56;;;;;;;4.65;0.85;;;;;;;0.39;100.00;100518.91;4882360;29;20209;-83
2021/12/03 04:59:22;;;;;;;6.28;1.13;;;;;;;0.44;100.00;100530.34;4866273;29;20209;-83
2021/12/03 05:01:48;;;;;;;3.38;0.80;;;;;;;0.49;100.00;100546.16;4883136;29;20193;-83
2021/12/03 05:04:14;;;;;;;5.05;0.70;;;;;;;0.51;100.00;100552.31;4868001;29;20208;-81
2021/12/03 05:09:28;;;;;;;5.07;0.90;;;;;;;0.59;100.00;100534.69;4864946;29;20569;-81
2021/12/03 05:11:53;;;;;;;5.10;0.95;;;;;;;0.51;100.00;100508.38;4880459;29;20267;-82
2021/12/03 05:14:19;;;;;;;7.93;1.50;;;;;;;0.46;100.00;100520.69;4863648;29;20177;-82
2021/12/03 05:16:45;;;;;;;6.78;0.90;;;;;;;0.56;100.00;100510.97;4847847;29;20300;-83
2021/12/03 05:19:11;;;;;;;6.93;0.88;;;;;;;0.49;100.00;100514.53;4879609;29;20182;-82
2021/12/03 05:21:37;;;;;;;5.65;1.20;;;;;;;0.54;100.00;100508.34;4863962;29;20304;-82
2021/12/03 05:24:03;;;;;;;3.58;0.95;;;;;;;0.47;100.00;100506.63;4849456;29;20201;-83
2021/12/03 05:26:29;;;;;;;8.32;1.17;;;;;;;0.45;100.00;100513.66;4880412;29;20189;-82
2021/12/03 05:28:54;;;;;;;6.70;0.80;;;;;;;0.46;100.00;100523.31;4863585;29;20192;-83
2021/12/03 05:31:20;;;;;;;4.45;1.02;;;;;;;0.50;100.00;100517.13;4880290;29;20231;-81
2021/12/03 05:33:45;;;;;;;3.90;0.77;;;;;;;0.56;100.00;100511.84;4862503;29;20173;-81
2021/12/03 05:36:10;;;;;;;8.98;1.10;;;;;;;0.53;100.00;100513.66;4877843;29;20624;-81
2021/12/03 05:38:38;;;;;;;6.15;1.10;;;;;;;0.56;100.00;100510.97;4847745;29;20189;-81
2021/12/03 05:41:03;;;;;;;5.72;1.05;;;;;;;0.60;100.00;100507.47;4880673;29;20608;-83
2021/12/03 05:43:28;;;;;;;2.97;0.95;;;;;;;0.58;100.00;100504.81;4879730;29;20229;-81
2021/12/03 05:45:54;;;;;;;5.88;0.88;;;;;;;0.63;100.00;100498.66;4879988;29;20177;-81
2021/12/03 05:48:19;;;;;;;5.25;0.80;;;;;;;0.65;100.00;100502.19;4862711;29;20187;-81
2021/12/03 05:50:45;;;;;;;3.97;0.85;;;;;;;0.65;100.00;100487.22;4862948;29;20194;-81
2021/12/03 05:53:10;;;;;;;8.00;1.00;;;;;;;0.67;100.00;100506.56;4879800;29;20320;-81
2021/12/03 05:55:36;;;;;;;6.68;1.23;;;;;;;0.73;100.00;100501.28;4848011;29;20652;-80
2021/12/03 05:58:02;;;;;;;5.00;0.98;;;;;;;0.74;100.00;100513.56;4861536;29;20178;-80
2021/12/03 06:00:31;;;;;;;7.97;1.25;;;;;;;0.75;100.00;100515.31;4862332;29;20218;-80
2021/12/03 06:02:57;;;;;;;8.85;1.08;;;;;;;0.76;100.00;100509.16;4845331;29;20286;-80
2021/12/03 06:05:25;;;;;;;7.60;1.10;;;;;;;0.82;100.00;100524.97;5062903;23;20228;-79
2021/12/03 06:07:51;;;;;;;6.55;1.30;;;;;;;0.79;100.00;100535.53;4917234;29;20168;-79
2021/12/03 06:10:17;;;;;;;6.68;1.10;;;;;;;0.80;100.00;100526.72;4898957;29;20547;-79
2021/12/03 06:12:43;;;;;;;6.75;1.05;;;;;;;0.84;100.00;100524.09;4914935;29;20224;-79
2021/12/03 06:15:09;;;;;;;7.07;1.42;;;;;;;0.82;100.00;100532.88;4914442;29;20184;-79
2021/12/03 06:17:34;;;;;;;5.03;1.23;;;;;;;0.82;100.00;100527.59;4915766;29;20184;-79
2021/12/03 06:19:59;;;;;;;10.70;1.63;;;;;;;0.85;100.00;100529.34;4899542;29;20188;-80
2021/12/03 06:22:25;;;;;;;5.72;1.20;;;;;;;0.81;100.00;100533.78;4920190;29;20231;-80
2021/12/03 06:24:50;;;;;;;9.05;1.10;;;;;;;0.87;100.00;100529.34;4918625;29;20164;-80
2021/12/03 06:27:16;;;;;;;5.78;1.02;;;;;;;0.85;100.00;100521.44;4916670;29;20172;-80
2021/12/03 06:29:41;;;;;;;7.15;1.50;;;;;;;0.87;100.00;100532.00;4918359;29;20263;-80
2021/12/03 06:32:09;;;;;;;7.18;1.15;;;;;;;0.88;100.00;100528.50;4918315;29;20165;-79
2021/12/03 06:37:38;;;;;;;4.40;1.05;;;;;;;0.80;100.00;100531.13;4913213;23;20239;-90
2021/12/03 06:40:24;;;;;;;4.78;1.05;;;;;;;0.82;100.00;100532.88;4861030;29;20196;-90
2021/12/03 06:43:09;;;;;;;7.03;1.40;;;;;;;0.81;100.00;100536.41;4861397;29;20226;-90
2021/12/03 06:45:35;;;;;;;8.15;1.65;;;;;;;0.92;100.00;100530.19;4842660;29;20282;-90
2021/12/03 06:48:02;;;;;;;4.18;1.63;;;;;;;0.91;100.00;100531.09;4846116;29;20243;-90
2021/12/03 06:50:34;;;;;;;6.07;1.70;;;;;;;0.93;100.00;100530.19;4830652;29;20187;-90
2021/12/03 06:53:08;;;;;;;8.88;1.52;;;;;;;0.95;100.00;100536.34;4830702;29;20181;-90
2021/12/03 07:02:31;;;;;;;5.68;1.60;;;;;;;0.99;100.00;100539.88;4861188;29;20199;-91
2021/12/03 07:05:12;;;;;;;6.70;1.83;;;;;;;1.02;100.00;100539.84;4837632;29;20590;-90
2021/12/03 07:07:46;;;;;;;6.10;1.83;;;;;;;1.01;100.00;100546.88;4844858;29;20627;-91
2021/12/03 07:10:12;;;;;;;6.30;2.00;;;;;;;1.01;100.00;100538.97;4876348;29;20539;-91
2021/12/03 07:12:52;;;;;;;11.23;1.92;;;;;;;1.00;100.00;100538.97;4830065;29;20216;-91
2021/12/03 07:15:18;;;;;;;7.60;2.67;;;;;;;1.03;100.00;100526.66;4815078;29;20221;-91
2021/12/03 07:17:56;;;;;;;7.35;1.63;;;;;;;0.98;100.00;100535.47;4830296;29;20186;-91
2021/12/03 07:20:26;;;;;;;9.93;1.52;;;;;;;0.97;100.00;100531.09;4845694;29;20183;-91
2021/12/03 07:22:53;;;;;;;5.97;1.17;;;;;;;0.96;100.00;100537.22;4845719;29;20179;-91
2021/12/03 07:25:19;;;;;;;7.10;1.02;;;;;;;0.94;100.00;100529.34;4845751;29;20207;-92
2021/12/03 07:31:46;;;;;;;8.13;1.17;;;;;;;1.03;100.00;100525.78;4847641;29;20207;-90
2021/12/03 07:34:14;;;;;;;5.00;2.05;;;;;;;0.98;100.00;100517.91;4847233;29;20212;-93
2021/12/03 07:37:22;;;;;;;6.68;1.65;;;;;;;1.03;100.00;100523.16;4861183;29;20227;-91
2021/12/03 07:40:00;;;;;;;6.03;1.30;;;;;;;1.02;100.00;100526.66;4844433;29;20821;-90
2021/12/03 07:42:29;;;;;;;4.40;1.17;;;;;;;0.98;100.00;100523.16;4844986;29;20206;-91
2021/12/03 07:44:55;;;;;;;6.53;2.03;;;;;;;0.99;100.00;100521.41;4814467;29;20734;-91
2021/12/03 07:47:20;;;;;;;3.50;1.08;;;;;;;1.08;100.00;100541.59;4830089;29;20286;-90
2021/12/03 07:49:48;;;;;;;7.85;1.50;;;;;;;1.03;100.00;100547.75;4882103;29;20173;-91
2021/12/03 07:52:15;;;;;;;6.68;1.60;;;;;;;1.02;100.00;100527.53;4881322;29;20261;-92
2021/12/03 07:54:44;;;;;;;11.30;3.05;;;;;;;1.04;100.00;100538.09;4865438;29;20170;-91
2021/12/03 07:57:09;;;;;;;8.45;3.53;;;;;;;1.06;100.00;100533.69;4864914;29;20181;-91
2021/12/03 07:59:35;;;;;;;13.50;8.98;;;;;;;1.08;100.00;100553.03;4865056;29;20184;-91
2021/12/03 08:02:00;;;;;;;17.58;9.25;;;;;;;1.08;100.00;100549.50;4865421;29;20662;-90
2021/12/03 08:04:29;;;;;;;13.32;8.23;;;;;;;1.10;100.00;100543.34;4865405;29;20282;-91
2021/12/03 08:06:55;;;;;;;11.88;7.38;;;;;;;1.10;100.00;100527.50;4866726;29;20657;-91
2021/12/03 08:09:24;;;;;;;12.13;7.05;;;;;;;1.07;100.00;100530.13;4865218;29;20273;-92
2021/12/03 08:11:50;;;;;;;6.32;3.55;;;;;;;1.11;100.00;100528.38;4865226;29;20726;-91
2021/12/03 08:14:16;;;;;;;6.82;3.53;;;;;;;1.06;100.00;100527.53;4865558;29;20218;-92
2021/12/03 08:16:45;;;;;;;7.60;2.70;;;;;;;1.18;100.00;100524.81;4864673;29;20197;-93
2021/12/03 08:19:13;;;;;;;7.25;2.88;;;;;;;1.13;100.00;100516.94;4868131;29;20640;-90
2021/12/03 08:21:39;;;;;;;7.53;3.58;;;;;;;1.17;100.00;100508.13;4879155;29;20442;-90
2021/12/03 08:24:05;;;;;;;8.13;2.83;;;;;;;1.13;100.00;100506.38;4880669;29;20197;-91
2021/12/03 08:26:32;;;;;;;6.30;2.60;;;;;;;1.11;100.00;100502.88;4864184;29;20205;-90
2021/12/03 08:29:01;;;;;;;6.63;2.90;;;;;;;1.13;100.00;100521.34;4865164;29;20257;-90
2021/12/03 08:31:27;;;;;;;7.18;2.60;;;;;;;1.11;100.00;100523.97;4885395;29;20168;-91
2021/12/03 08:33:52;;;;;;;7.45;2.90;;;;;;;1.07;100.00;100511.66;4887228;29;20213;-92
2021/12/03 08:36:23;;;;;;;9.10;3.00;;;;;;;1.03;100.00;100512.59;4880560;29;20208;-92
2021/12/03 08:38:50;;;;;;;8.65;3.15;;;;;;;1.13;100.00;100514.28;4881267;29;20708;-93
2021/12/03 08:41:19;;;;;;;7.95;3.40;;;;;;;1.10;100.00;100502.91;4849310;29;20307;-91
2021/12/03 08:43:49;;;;;;;4.10;2.80;;;;;;;1.04;100.00;100516.97;4880512;29;20186;-91
2021/12/03 08:46:22;;;;;;;5.45;3.40;;;;;;;1.00;100.00;100508.19;4880475;29;20578;-92
2021/12/03 08:48:51;;;;;;;7.13;3.88;;;;;;;0.95;100.00;100494.16;4865138;29;20189;-93
2021/12/03 08:56:30;;;;;;;4.47;3.55;;;;;;;1.09;100.00;100496.72;4880347;29;20213;-91
2021/12/03 08:58:56;;;;;;;10.40;4.20;;;;;;;1.18;100.00;100485.22;4880363;29;20224;-92
2021/12/03 09:01:22;;;;;;;8.43;3.75;;;;;;;1.30;100.00;100494.88;4879864;29;20232;-91
2021/12/03 09:03:48;;;;;;;5.43;3.58;;;;;;;1.38;100.00;100491.28;4845280;29;20239;-90
2021/12/03 09:06:26;;;;;;;;;;;;;;;;;;;;;
2021/12/03 09:10:11;;;;;;;6.78;3.53;;;;;;;1.38;100.00;100503.63;4881293;29;20219;-90
2021/12/03 09:12:46;;;;;;;6.65;3.75;;;;;;;1.49;100.00;100520.28;4845978;29;20261;-91
2021/12/03 09:15:35;;;;;;;7.88;4.20;;;;;;;1.39;100.00;100510.66;4863472;29;20201;-91
2021/12/03 09:23:25;;;;;;;6.78;4.22;;;;;;;1.50;100.00;100505.31;4877715;29;20174;-92
2021/12/03 09:25:55;;;;;;;9.13;5.05;;;;;;;1.48;100.00;100502.66;4877779;29;20284;-91
2021/12/03 09:28:27;;;;;;;7.70;4.90;;;;;;;1.33;100.00;100503.63;4869852;29;20193;-91
2021/12/03 09:30:53;;;;;;;13.25;5.25;;;;;;;1.46;100.00;100507.06;4862299;29;20170;-92
2021/12/03 09:33:22;;;;;;;8.23;4.82;;;;;;;1.39;100.00;100495.69;4877398;29;20177;-91
2021/12/03 09:36:04;;;;;;;9.27;5.15;;;;;;;1.53;100.00;100497.34;4877575;29;20299;-90
2021/12/03 09:38:34;;;;;;;8.13;5.13;;;;;;;1.55;100.00;100508.78;4862504;29;20250;-92
2021/12/03 09:41:06;;;;;;;9.05;5.53;;;;;;;1.59;100.00;100492.03;4862186;29;20204;-91
2021/12/03 09:43:39;;;;;;;14.95;5.93;;;;;;;1.75;100.00;100506.00;4862728;29;20165;-91
2021/12/03 09:46:28;;;;;;;10.52;5.72;;;;;;;1.57;100.00;100504.38;4862266;29;20224;-91
2021/12/03 09:51:24;;;;;;;9.88;5.95;;;;;;;1.50;100.00;100503.53;4877850;29;20168;-91
2021/12/03 09:56:18;;;;;;;10.68;5.47;;;;;;;1.58;100.00;100487.66;4878203;29;20252;-91
2021/12/03 10:13:21;;;;;;;11.85;6.75;;;;;;;1.29;100.00;100483.44;4859031;29;20713;-91
2021/12/03 10:18:54;;;;;;;9.73;6.72;;;;;;;1.06;100.00;100475.63;4859235;29;20175;-90
2021/12/03 10:22:00;;;;;;;10.07;7.43;;;;;;;1.08;100.00;100473.88;4844963;29;20198;-91
2021/12/03 10:28:07;;;;;;;9.35;6.90;;;;;;;1.12;100.00;100454.50;4862538;29;20281;-91
2021/12/03 10:37:02;;;;;;;10.27;7.93;;;;;;;1.16;100.00;100444.78;4864004;29;20799;-91
2021/12/03 10:42:19;;;;;;;9.38;8.10;;;;;;;1.16;100.00;100443.06;4862831;29;20214;-93
2021/12/03 10:45:32;;;;;;;14.65;8.07;;;;;;;1.13;100.00;100431.63;4847600;29;20200;-91
2021/12/03 10:48:22;;;;;;;9.25;7.25;;;;;;;1.06;100.00;100422.88;4847217;29;20194;-91
2021/12/03 11:38:45;;;;;;;16.65;13.82;;;;;;;1.26;100.00;100364.69;4903524;29;20211;-79
2021/12/03 11:45:19;;;;;;;15.88;13.45;;;;;;;1.31;100.00;100377.84;4886210;29;20196;-79
2021/12/03 12:20:28;;;;;;;19.58;16.15;;;;;;;1.51;100.00;100328.41;4897538;29;20244;-78
2021/12/03 12:41:47;;;;;;;19.08;16.17;;;;;;;1.55;100.00;100337.16;4897221;29;20211;-78
2021/12/03 12:55:57;;;;;;;21.15;15.95;;;;;;;1.58;100.00;100319.53;4851415;29;20204;-80
2021/12/03 14:00:42;;;;;;;35.08;23.85;;;;;;;1.34;100.00;100219.50;4877451;29;20200;-80
2021/12/03 14:47:52;;;;;;;37.33;21.52;;;;;;;1.34;100.00;100154.38;4883896;29;20256;-78
2021/12/03 14:55:37;;;;;;;33.65;20.17;;;;;;;1.17;100.00;100156.31;4951713;23;20217;-79
2021/12/03 14:58:21;;;;;;;28.90;19.65;;;;;;;0.96;100.00;100150.41;4895347;29;20220;-80
2021/12/03 15:00:56;;;;;;;35.00;19.63;;;;;;;0.84;100.00;100139.09;4878750;29;20258;-80
2021/12/03 15:08:41;;;;;;;33.33;20.98;;;;;;;0.71;100.00;100135.69;4892521;29;20189;-78
2021/12/03 15:32:41;;;;;;;34.00;20.00;;;;;;;0.18;100.00;100074.66;4790028;29;20726;-79
2021/12/03 15:40:25;;;;;;;30.75;18.63;;;;;;;0.28;100.00;100059.63;4842157;29;20649;-81
2021/12/03 16:04:23;;;;;;;29.48;18.13;;;;;;;0.19;100.00;100032.47;4860165;29;20576;-80
2021/12/03 16:09:48;;;;;;;29.42;17.92;;;;;;;0.16;100.00;100021.13;4859354;29;20209;-80
2021/12/03 16:52:13;;;;;;;19.70;14.20;;;;;;;0.56;100.00;99989.09;4858639;29;20194;-79
2021/12/03 16:57:08;;;;;;;17.10;14.27;;;;;;;0.56;100.00;99976.78;4889227;29;20280;-79
2021/12/03 16:59:34;;;;;;;19.35;14.43;;;;;;;0.57;100.00;99973.28;4885104;29;20224;-79
2021/12/03 17:02:05;;;;;;;16.77;13.82;;;;;;;0.65;100.00;99967.03;4900048;29;20203;-78
2021/12/03 17:48:59;;;;;;;12.20;11.02;;;;;;;1.12;100.00;99916.31;4878506;29;20178;-82
2021/12/03 17:56:43;;;;;;;13.20;11.82;;;;;;;1.13;100.00;99909.25;4876037;29;20172;-79
2021/12/03 18:01:47;;;;;;;13.07;11.77;;;;;;;1.23;100.00;99919.66;4892409;29;20201;-80
2021/12/03 18:04:23;;;;;;;14.60;13.20;;;;;;;1.24;100.00;99916.13;4891089;29;20212;-81
2021/12/03 18:44:06;;;;;;;15.10;13.38;;;;;;;1.52;100.00;99899.00;4883776;29;20165;-79
2021/12/03 18:51:51;;;;;;;15.50;13.93;;;;;;;1.57;100.00;99882.16;4878533;29;20643;-79
2021/12/03 18:54:32;;;;;;;16.35;14.75;;;;;;;1.60;100.00;99895.34;4872025;29;20192;-80
2021/12/03 18:56:55;;;;;;;15.98;14.27;;;;;;;1.61;100.00;99883.00;4949124;23;20226;-79
2021/12/03 18:59:24;;;;;;;16.75;14.40;;;;;;;1.65;100.00;99895.25;4890844;29;20212;-79
2021/12/03 19:01:51;;;;;;;16.85;15.00;;;;;;;1.65;100.00;99884.69;4907851;29;20253;-79
2021/12/03 19:04:23;;;;;;;16.67;14.60;;;;;;;1.68;100.00;99895.19;4904516;29;20196;-79
2021/12/03 19:09:31;;;;;;;17.02;15.32;;;;;;;1.73;100.00;99885.44;4900333;29;20177;-78
2021/12/03 19:14:32;;;;;;;18.48;15.57;;;;;;;1.83;100.00;99888.78;4901248;29;20215;-79
2021/12/03 19:16:58;;;;;;;19.85;17.58;;;;;;;1.89;100.00;99898.38;4887692;29;20245;-79
2021/12/03 19:19:24;;;;;;;20.00;17.92;;;;;;;1.93;100.00;99895.66;4904041;29;20181;-78
2021/12/03 19:21:53;;;;;;;17.80;15.82;;;;;;;2.00;100.00;99888.47;4901978;29;20750;-78
2021/12/03 19:24:19;;;;;;;20.63;18.40;;;;;;;1.97;100.00;99899.97;4900734;29;20185;-78
2021/12/03 19:26:45;;;;;;;20.95;18.05;;;;;;;2.02;100.00;99892.84;4900677;29;20529;-80
2021/12/03 19:29:13;;;;;;;20.48;18.40;;;;;;;2.03;100.00;99896.34;4881793;29;20188;-80
2021/12/03 19:31:39;;;;;;;22.25;18.90;;;;;;;2.08;100.00;99891.84;4898298;29;20651;-80
2021/12/03 19:34:06;;;;;;;20.80;18.70;;;;;;;2.14;100.00;99888.22;4884314;29;20185;-78
2021/12/03 19:36:37;;;;;;;23.02;20.05;;;;;;;2.17;100.00;99893.47;4900631;29;20511;-78
2021/12/03 19:39:03;;;;;;;22.63;19.10;;;;;;;2.22;100.00;99905.66;4902002;29;20173;-79